Hlavní strana
METAR-TAF:

METAR-TAF

Letiště :

Lee's Summit Municipal Airport

Lee's Summit, Missouri, Spojené státy americké

zeměpisná šířka: 38-57-35N, zeměpisná délka: 094-22-18W, výška: 306 m

Aktuální stav počasí

Zpráva byla vytvořena před 13 minutami, v 09:10 UTC
Severovýchodní vítr 8 kt
Teplota 8°C
Vlhkost vzduchu 87%
Tlak 1008 hPa
Viditelnost: 6.4 km
Polojasno ve výšce 300 ft
Oblačno až skoro zataženo ve výšce 1300 ft
Zataženo ve výšce 5500 ft
slabý déšť, kouřmo

METAR: KLXT 240910Z AUTO 05008KT 4SM -RA BR SCT003 BKN013 OVC055 08/06 A2976 RMK AO2 P0001 T00780061

Čas: 03:23 (09:23 UTC)


TAF: chybějící

Stav a předpovědi počasí z více než 4 000 letišť (zprávy METAR a TAF).

Červené a žluté tečky na mapě představují dostupné meteorologické stanice.

Když kurzor umístíte na tečku, zobrazí se název stanice.

Pak kliknutím zobrazíte stav a předpověď počasí.

Chcete-li změnit mapu, kliknutím na zelené tlačítko se znaménkem +mapu přiblížíte, kliknutím na zelené tlačítko se znaménkem – mapu oddálíte a kliknutím na zelené šipky přejdete na sousední mapy.


METAR-TAF: